sensor_id;sensor_type;location;lat;lon;timestamp;P1;durP1;ratioP1;P2;durP2;ratioP2
23046;SDS011;11691;51.462;6.902;2022-09-09T00:00:22;2.25;;;0.70;;
23046;SDS011;11691;51.462;6.902;2022-09-09T00:03:01;2.80;;;0.63;;
23046;SDS011;11691;51.462;6.902;2022-09-09T00:05:37;1.60;;;0.70;;
23046;SDS011;11691;51.462;6.902;2022-09-09T00:08:07;1.23;;;0.50;;
23046;SDS011;11691;51.462;6.902;2022-09-09T00:10:42;2.95;;;0.70;;
23046;SDS011;11691;51.462;6.902;2022-09-09T00:20:58;2.47;;;0.82;;
23046;SDS011;11691;51.462;6.902;2022-09-09T00:23:38;3.00;;;0.68;;
23046;SDS011;11691;51.462;6.902;2022-09-09T00:26:09;1.42;;;0.52;;
23046;SDS011;11691;51.462;6.902;2022-09-09T00:28:41;2.03;;;0.73;;
23046;SDS011;11691;51.462;6.902;2022-09-09T00:31:16;1.30;;;0.55;;
23046;SDS011;11691;51.462;6.902;2022-09-09T00:33:43;1.60;;;0.70;;
23046;SDS011;11691;51.462;6.902;2022-09-09T00:36:14;1.20;;;0.43;;
23046;SDS011;11691;51.462;6.902;2022-09-09T00:38:51;1.77;;;0.90;;
23046;SDS011;11691;51.462;6.902;2022-09-09T00:41:22;4.70;;;0.90;;
23046;SDS011;11691;51.462;6.902;2022-09-09T00:43:57;1.33;;;0.50;;
23046;SDS011;11691;51.462;6.902;2022-09-09T00:55:14;1.25;;;0.70;;
23046;SDS011;11691;51.462;6.902;2022-09-09T00:57:51;3.17;;;0.90;;
23046;SDS011;11691;51.462;6.902;2022-09-09T01:00:24;2.03;;;0.82;;
23046;SDS011;11691;51.462;6.902;2022-09-09T01:08:01;2.05;;;0.73;;
23046;SDS011;11691;51.462;6.902;2022-09-09T01:10:32;2.13;;;0.70;;
23046;SDS011;11691;51.462;6.902;2022-09-09T01:13:02;2.15;;;0.80;;
23046;SDS011;11691;51.462;6.902;2022-09-09T01:15:36;2.88;;;0.80;;
23046;SDS011;11691;51.462;6.902;2022-09-09T01:18:12;3.65;;;0.80;;
23046;SDS011;11691;51.462;6.902;2022-09-09T01:23:42;1.23;;;0.70;;
23046;SDS011;11691;51.462;6.902;2022-09-09T01:26:34;2.60;;;1.00;;
23046;SDS011;11691;51.462;6.902;2022-09-09T01:29:00;3.00;;;1.20;;
23046;SDS011;11691;51.462;6.902;2022-09-09T01:31:27;2.45;;;0.73;;
23046;SDS011;11691;51.462;6.902;2022-09-09T01:33:54;3.05;;;1.00;;
23046;SDS011;11691;51.462;6.902;2022-09-09T01:36:32;1.98;;;1.10;;
23046;SDS011;11691;51.462;6.902;2022-09-09T01:39:03;2.05;;;0.90;;
23046;SDS011;11691;51.462;6.902;2022-09-09T01:41:29;3.08;;;1.13;;
23046;SDS011;11691;51.462;6.902;2022-09-09T01:43:56;3.10;;;1.23;;
23046;SDS011;11691;51.462;6.902;2022-09-09T01:46:22;3.50;;;1.20;;
23046;SDS011;11691;51.462;6.902;2022-09-09T01:48:51;2.45;;;1.33;;
23046;SDS011;11691;51.462;6.902;2022-09-09T01:51:18;4.15;;;1.48;;
23046;SDS011;11691;51.462;6.902;2022-09-09T01:53:44;2.15;;;1.33;;
23046;SDS011;11691;51.462;6.902;2022-09-09T01:56:26;2.63;;;1.20;;
23046;SDS011;11691;51.462;6.902;2022-09-09T02:04:31;4.55;;;1.13;;
23046;SDS011;11691;51.462;6.902;2022-09-09T02:07:16;3.33;;;1.10;;
23046;SDS011;11691;51.462;6.902;2022-09-09T02:09:43;2.55;;;1.08;;
23046;SDS011;11691;51.462;6.902;2022-09-09T02:12:13;3.85;;;1.10;;
23046;SDS011;11691;51.462;6.902;2022-09-09T02:14:45;5.70;;;1.08;;
23046;SDS011;11691;51.462;6.902;2022-09-09T02:17:14;4.82;;;1.10;;
23046;SDS011;11691;51.462;6.902;2022-09-09T02:19:51;2.58;;;0.98;;
23046;SDS011;11691;51.462;6.902;2022-09-09T02:22:23;5.22;;;1.10;;
23046;SDS011;11691;51.462;6.902;2022-09-09T02:24:51;2.00;;;0.93;;
23046;SDS011;11691;51.462;6.902;2022-09-09T02:27:21;3.70;;;0.95;;
23046;SDS011;11691;51.462;6.902;2022-09-09T02:29:48;1.98;;;1.15;;
23046;SDS011;11691;51.462;6.902;2022-09-09T02:32:16;2.65;;;1.00;;
23046;SDS011;11691;51.462;6.902;2022-09-09T02:34:45;2.28;;;1.00;;
23046;SDS011;11691;51.462;6.902;2022-09-09T02:37:15;2.83;;;1.23;;
23046;SDS011;11691;51.462;6.902;2022-09-09T02:39:43;2.40;;;1.27;;
23046;SDS011;11691;51.462;6.902;2022-09-09T02:42:09;4.95;;;1.33;;
23046;SDS011;11691;51.462;6.902;2022-09-09T02:44:34;1.83;;;1.10;;
23046;SDS011;11691;51.462;6.902;2022-09-09T02:47:07;5.50;;;1.30;;
23046;SDS011;11691;51.462;6.902;2022-09-09T02:52:18;3.75;;;1.38;;
23046;SDS011;11691;51.462;6.902;2022-09-09T02:54:47;2.97;;;1.10;;
23046;SDS011;11691;51.462;6.902;2022-09-09T02:57:48;4.43;;;1.10;;
23046;SDS011;11691;51.462;6.902;2022-09-09T03:00:08;4.40;;;1.23;;
23046;SDS011;11691;51.462;6.902;2022-09-09T03:02:34;3.17;;;1.05;;
23046;SDS011;11691;51.462;6.902;2022-09-09T03:05:00;4.53;;;1.02;;
23046;SDS011;11691;51.462;6.902;2022-09-09T03:07:26;3.75;;;1.00;;
23046;SDS011;11691;51.462;6.902;2022-09-09T03:09:52;3.72;;;1.13;;
23046;SDS011;11691;51.462;6.902;2022-09-09T03:12:18;5.38;;;1.40;;
23046;SDS011;11691;51.462;6.902;2022-09-09T03:14:45;3.15;;;0.93;;
23046;SDS011;11691;51.462;6.902;2022-09-09T03:17:11;4.53;;;1.15;;
23046;SDS011;11691;51.462;6.902;2022-09-09T03:19:37;5.38;;;1.55;;
23046;SDS011;11691;51.462;6.902;2022-09-09T03:22:05;3.85;;;1.33;;
23046;SDS011;11691;51.462;6.902;2022-09-09T03:24:30;3.63;;;1.10;;
23046;SDS011;11691;51.462;6.902;2022-09-09T03:26:56;3.35;;;1.40;;
23046;SDS011;11691;51.462;6.902;2022-09-09T03:29:22;5.07;;;1.30;;
23046;SDS011;11691;51.462;6.902;2022-09-09T03:31:48;7.00;;;1.40;;
23046;SDS011;11691;51.462;6.902;2022-09-09T03:34:15;4.78;;;1.50;;
23046;SDS011;11691;51.462;6.902;2022-09-09T03:36:41;6.03;;;1.52;;
23046;SDS011;11691;51.462;6.902;2022-09-09T03:39:07;4.85;;;1.52;;
23046;SDS011;11691;51.462;6.902;2022-09-09T03:41:33;5.45;;;1.80;;
23046;SDS011;11691;51.462;6.902;2022-09-09T03:43:59;2.30;;;1.27;;
23046;SDS011;11691;51.462;6.902;2022-09-09T03:46:25;2.88;;;1.30;;
23046;SDS011;11691;51.462;6.902;2022-09-09T03:48:51;4.28;;;2.13;;
23046;SDS011;11691;51.462;6.902;2022-09-09T03:51:17;3.67;;;1.27;;
23046;SDS011;11691;51.462;6.902;2022-09-09T03:53:44;2.78;;;1.65;;
23046;SDS011;11691;51.462;6.902;2022-09-09T03:56:09;4.50;;;1.90;;
23046;SDS011;11691;51.462;6.902;2022-09-09T03:58:37;4.22;;;1.20;;
23046;SDS011;11691;51.462;6.902;2022-09-09T04:03:34;2.92;;;1.30;;
23046;SDS011;11691;51.462;6.902;2022-09-09T04:06:01;7.43;;;1.90;;
23046;SDS011;11691;51.462;6.902;2022-09-09T04:08:28;4.03;;;1.42;;
23046;SDS011;11691;51.462;6.902;2022-09-09T04:10:56;3.92;;;1.35;;
23046;SDS011;11691;51.462;6.902;2022-09-09T04:13:23;5.30;;;1.40;;
23046;SDS011;11691;51.462;6.902;2022-09-09T04:15:52;3.72;;;1.50;;
23046;SDS011;11691;51.462;6.902;2022-09-09T04:18:19;4.72;;;1.45;;
23046;SDS011;11691;51.462;6.902;2022-09-09T04:20:46;4.45;;;1.70;;
23046;SDS011;11691;51.462;6.902;2022-09-09T04:23:13;5.60;;;1.50;;
23046;SDS011;11691;51.462;6.902;2022-09-09T04:25:43;5.22;;;1.90;;
23046;SDS011;11691;51.462;6.902;2022-09-09T04:28:16;4.47;;;1.55;;
23046;SDS011;11691;51.462;6.902;2022-09-09T04:30:42;4.55;;;1.75;;
23046;SDS011;11691;51.462;6.902;2022-09-09T04:33:09;5.78;;;1.27;;
23046;SDS011;11691;51.462;6.902;2022-09-09T04:35:35;3.10;;;1.27;;
23046;SDS011;11691;51.462;6.902;2022-09-09T04:38:01;6.40;;;1.77;;
23046;SDS011;11691;51.462;6.902;2022-09-09T04:40:32;7.15;;;1.70;;
23046;SDS011;11691;51.462;6.902;2022-09-09T04:42:58;7.30;;;1.52;;
23046;SDS011;11691;51.462;6.902;2022-09-09T04:45:24;4.47;;;1.40;;
23046;SDS011;11691;51.462;6.902;2022-09-09T04:47:51;5.93;;;1.48;;
23046;SDS011;11691;51.462;6.902;2022-09-09T04:50:17;4.18;;;1.55;;
23046;SDS011;11691;51.462;6.902;2022-09-09T04:52:43;8.63;;;1.75;;
23046;SDS011;11691;51.462;6.902;2022-09-09T04:55:09;3.22;;;1.70;;
23046;SDS011;11691;51.462;6.902;2022-09-09T04:57:35;4.85;;;1.60;;
23046;SDS011;11691;51.462;6.902;2022-09-09T05:00:01;6.85;;;1.75;;
23046;SDS011;11691;51.462;6.902;2022-09-09T05:02:28;4.90;;;1.77;;
23046;SDS011;11691;51.462;6.902;2022-09-09T05:04:55;4.30;;;1.23;;
23046;SDS011;11691;51.462;6.902;2022-09-09T05:07:21;5.07;;;1.38;;
23046;SDS011;11691;51.462;6.902;2022-09-09T05:09:47;3.85;;;1.70;;
23046;SDS011;11691;51.462;6.902;2022-09-09T05:12:14;7.07;;;1.58;;
23046;SDS011;11691;51.462;6.902;2022-09-09T05:14:41;3.72;;;1.58;;
23046;SDS011;11691;51.462;6.902;2022-09-09T05:17:08;5.50;;;1.58;;
23046;SDS011;11691;51.462;6.902;2022-09-09T05:19:33;8.27;;;1.73;;
23046;SDS011;11691;51.462;6.902;2022-09-09T05:21:59;6.22;;;1.60;;
23046;SDS011;11691;51.462;6.902;2022-09-09T05:24:26;6.10;;;1.50;;
23046;SDS011;11691;51.462;6.902;2022-09-09T05:26:52;4.15;;;1.92;;
23046;SDS011;11691;51.462;6.902;2022-09-09T05:29:18;5.75;;;1.65;;
23046;SDS011;11691;51.462;6.902;2022-09-09T05:31:44;6.65;;;1.50;;
23046;SDS011;11691;51.462;6.902;2022-09-09T05:34:10;9.65;;;2.00;;
23046;SDS011;11691;51.462;6.902;2022-09-09T05:36:36;7.00;;;1.95;;
23046;SDS011;11691;51.462;6.902;2022-09-09T05:39:02;5.50;;;1.50;;
23046;SDS011;11691;51.462;6.902;2022-09-09T05:41:28;7.18;;;1.90;;
23046;SDS011;11691;51.462;6.902;2022-09-09T05:43:55;6.60;;;1.70;;
23046;SDS011;11691;51.462;6.902;2022-09-09T05:46:21;7.72;;;2.00;;
23046;SDS011;11691;51.462;6.902;2022-09-09T05:48:49;8.07;;;1.88;;
23046;SDS011;11691;51.462;6.902;2022-09-09T05:51:23;7.55;;;2.05;;
23046;SDS011;11691;51.462;6.902;2022-09-09T05:53:51;8.98;;;1.95;;
23046;SDS011;11691;51.462;6.902;2022-09-09T05:56:18;8.68;;;1.90;;
23046;SDS011;11691;51.462;6.902;2022-09-09T05:58:44;4.45;;;1.80;;
23046;SDS011;11691;51.462;6.902;2022-09-09T06:01:15;7.05;;;1.70;;
23046;SDS011;11691;51.462;6.902;2022-09-09T06:03:42;6.20;;;1.75;;
23046;SDS011;11691;51.462;6.902;2022-09-09T06:06:10;9.00;;;1.85;;
23046;SDS011;11691;51.462;6.902;2022-09-09T06:08:38;5.22;;;1.63;;
23046;SDS011;11691;51.462;6.902;2022-09-09T06:11:05;3.70;;;1.60;;
23046;SDS011;11691;51.462;6.902;2022-09-09T06:13:31;5.47;;;1.88;;
23046;SDS011;11691;51.462;6.902;2022-09-09T06:15:58;5.55;;;1.92;;
23046;SDS011;11691;51.462;6.902;2022-09-09T06:18:24;10.15;;;2.17;;
23046;SDS011;11691;51.462;6.902;2022-09-09T06:20:57;10.57;;;1.60;;
23046;SDS011;11691;51.462;6.902;2022-09-09T06:23:26;5.68;;;1.80;;
23046;SDS011;11691;51.462;6.902;2022-09-09T06:26:06;8.45;;;1.63;;
23046;SDS011;11691;51.462;6.902;2022-09-09T06:28:33;6.55;;;1.80;;
23046;SDS011;11691;51.462;6.902;2022-09-09T06:30:59;4.22;;;2.00;;
23046;SDS011;11691;51.462;6.902;2022-09-09T06:33:26;8.25;;;2.00;;
23046;SDS011;11691;51.462;6.902;2022-09-09T06:35:53;8.05;;;2.00;;
23046;SDS011;11691;51.462;6.902;2022-09-09T06:38:19;7.10;;;1.65;;
23046;SDS011;11691;51.462;6.902;2022-09-09T06:40:56;6.50;;;1.85;;
23046;SDS011;11691;51.462;6.902;2022-09-09T06:43:23;10.80;;;2.08;;
23046;SDS011;11691;51.462;6.902;2022-09-09T06:46:01;5.47;;;1.73;;
23046;SDS011;11691;51.462;6.902;2022-09-09T06:48:27;4.35;;;1.48;;
23046;SDS011;11691;51.462;6.902;2022-09-09T06:51:03;12.73;;;2.67;;
23046;SDS011;11691;51.462;6.902;2022-09-09T06:53:31;5.28;;;1.80;;
23046;SDS011;11691;51.462;6.902;2022-09-09T06:56:01;9.43;;;2.08;;
23046;SDS011;11691;51.462;6.902;2022-09-09T06:58:28;8.73;;;1.77;;
23046;SDS011;11691;51.462;6.902;2022-09-09T07:01:06;14.88;;;2.25;;
23046;SDS011;11691;51.462;6.902;2022-09-09T07:03:32;7.80;;;1.60;;
23046;SDS011;11691;51.462;6.902;2022-09-09T07:05:59;5.97;;;1.77;;
23046;SDS011;11691;51.462;6.902;2022-09-09T07:08:25;11.50;;;1.83;;
23046;SDS011;11691;51.462;6.902;2022-09-09T07:10:52;2.85;;;1.65;;
23046;SDS011;11691;51.462;6.902;2022-09-09T07:13:25;5.60;;;1.60;;
23046;SDS011;11691;51.462;6.902;2022-09-09T07:15:52;6.78;;;1.80;;
23046;SDS011;11691;51.462;6.902;2022-09-09T07:18:18;6.43;;;1.70;;
23046;SDS011;11691;51.462;6.902;2022-09-09T07:20:54;6.75;;;1.48;;
23046;SDS011;11691;51.462;6.902;2022-09-09T07:23:21;5.25;;;1.63;;
23046;SDS011;11691;51.462;6.902;2022-09-09T07:25:47;4.35;;;1.33;;
23046;SDS011;11691;51.462;6.902;2022-09-09T07:28:13;7.53;;;1.75;;
23046;SDS011;11691;51.462;6.902;2022-09-09T07:30:39;7.68;;;1.77;;
23046;SDS011;11691;51.462;6.902;2022-09-09T07:33:06;4.55;;;1.42;;
23046;SDS011;11691;51.462;6.902;2022-09-09T07:35:32;6.15;;;1.55;;
23046;SDS011;11691;51.462;6.902;2022-09-09T07:38:00;6.53;;;1.63;;
23046;SDS011;11691;51.462;6.902;2022-09-09T07:40:26;4.70;;;1.45;;
23046;SDS011;11691;51.462;6.902;2022-09-09T07:42:53;8.00;;;1.52;;
23046;SDS011;11691;51.462;6.902;2022-09-09T07:45:19;4.45;;;1.15;;
23046;SDS011;11691;51.462;6.902;2022-09-09T07:47:45;6.88;;;1.63;;
23046;SDS011;11691;51.462;6.902;2022-09-09T07:50:11;5.80;;;1.20;;
23046;SDS011;11691;51.462;6.902;2022-09-09T07:52:37;5.53;;;1.13;;
23046;SDS011;11691;51.462;6.902;2022-09-09T07:55:03;6.18;;;1.60;;
23046;SDS011;11691;51.462;6.902;2022-09-09T07:57:29;6.70;;;1.40;;
23046;SDS011;11691;51.462;6.902;2022-09-09T07:59:56;7.07;;;1.35;;
23046;SDS011;11691;51.462;6.902;2022-09-09T08:02:22;6.13;;;1.27;;
23046;SDS011;11691;51.462;6.902;2022-09-09T08:04:49;7.82;;;1.30;;
23046;SDS011;11691;51.462;6.902;2022-09-09T08:07:15;6.10;;;1.30;;
23046;SDS011;11691;51.462;6.902;2022-09-09T08:09:41;7.22;;;1.10;;
23046;SDS011;11691;51.462;6.902;2022-09-09T08:12:08;7.25;;;1.52;;
23046;SDS011;11691;51.462;6.902;2022-09-09T08:14:35;5.05;;;1.15;;
23046;SDS011;11691;51.462;6.902;2022-09-09T08:17:02;6.80;;;1.65;;
23046;SDS011;11691;51.462;6.902;2022-09-09T08:19:27;7.10;;;1.45;;
23046;SDS011;11691;51.462;6.902;2022-09-09T08:21:55;5.82;;;1.13;;
23046;SDS011;11691;51.462;6.902;2022-09-09T08:24:21;9.20;;;1.50;;
23046;SDS011;11691;51.462;6.902;2022-09-09T08:26:48;2.78;;;0.90;;
23046;SDS011;11691;51.462;6.902;2022-09-09T08:29:14;5.03;;;1.40;;
23046;SDS011;11691;51.462;6.902;2022-09-09T08:31:43;3.30;;;1.00;;
23046;SDS011;11691;51.462;6.902;2022-09-09T08:34:10;8.45;;;1.50;;
23046;SDS011;11691;51.462;6.902;2022-09-09T08:36:40;5.15;;;1.33;;
23046;SDS011;11691;51.462;6.902;2022-09-09T08:39:07;5.03;;;1.20;;
23046;SDS011;11691;51.462;6.902;2022-09-09T08:57:43;4.35;;;1.52;;
23046;SDS011;11691;51.462;6.902;2022-09-09T09:00:10;5.82;;;1.38;;
23046;SDS011;11691;51.462;6.902;2022-09-09T09:02:46;6.00;;;1.25;;
23046;SDS011;11691;51.462;6.902;2022-09-09T09:05:46;5.13;;;1.10;;
23046;SDS011;11691;51.462;6.902;2022-09-09T09:11:08;5.57;;;1.10;;
23046;SDS011;11691;51.462;6.902;2022-09-09T09:16:06;5.03;;;1.00;;
23046;SDS011;11691;51.462;6.902;2022-09-09T09:18:57;8.15;;;1.63;;
23046;SDS011;11691;51.462;6.902;2022-09-09T09:24:30;2.22;;;0.93;;
23046;SDS011;11691;51.462;6.902;2022-09-09T09:27:00;4.70;;;1.20;;
23046;SDS011;11691;51.462;6.902;2022-09-09T09:29:33;3.40;;;1.20;;
23046;SDS011;11691;51.462;6.902;2022-09-09T09:32:00;4.20;;;1.15;;
23046;SDS011;11691;51.462;6.902;2022-09-09T09:34:28;4.47;;;1.02;;
23046;SDS011;11691;51.462;6.902;2022-09-09T09:36:55;6.78;;;1.20;;
23046;SDS011;11691;51.462;6.902;2022-09-09T09:39:23;7.95;;;1.48;;
23046;SDS011;11691;51.462;6.902;2022-09-09T09:41:49;3.90;;;0.98;;
23046;SDS011;11691;51.462;6.902;2022-09-09T09:44:34;5.93;;;1.10;;
23046;SDS011;11691;51.462;6.902;2022-09-09T09:47:06;4.00;;;1.00;;
23046;SDS011;11691;51.462;6.902;2022-09-09T09:49:38;9.32;;;1.42;;
23046;SDS011;11691;51.462;6.902;2022-09-09T09:52:05;4.32;;;1.10;;
23046;SDS011;11691;51.462;6.902;2022-09-09T09:54:33;4.63;;;1.23;;
23046;SDS011;11691;51.462;6.902;2022-09-09T09:57:10;5.68;;;1.30;;
23046;SDS011;11691;51.462;6.902;2022-09-09T09:59:37;4.38;;;1.00;;
23046;SDS011;11691;51.462;6.902;2022-09-09T10:04:43;7.63;;;1.42;;
23046;SDS011;11691;51.462;6.902;2022-09-09T10:07:17;4.50;;;1.10;;
23046;SDS011;11691;51.462;6.902;2022-09-09T10:09:43;4.18;;;1.33;;
23046;SDS011;11691;51.462;6.902;2022-09-09T10:17:12;2.33;;;0.88;;
23046;SDS011;11691;51.462;6.902;2022-09-09T10:19:53;3.65;;;0.80;;
23046;SDS011;11691;51.462;6.902;2022-09-09T10:24:57;3.47;;;0.82;;
23046;SDS011;11691;51.462;6.902;2022-09-09T10:27:32;3.33;;;0.88;;
23046;SDS011;11691;51.462;6.902;2022-09-09T10:30:05;2.75;;;1.02;;
23046;SDS011;11691;51.462;6.902;2022-09-09T10:35:33;2.95;;;0.80;;
23046;SDS011;11691;51.462;6.902;2022-09-09T10:40:40;2.80;;;0.63;;
23046;SDS011;11691;51.462;6.902;2022-09-09T10:46:23;2.97;;;0.60;;
23046;SDS011;11691;51.462;6.902;2022-09-09T10:56:42;4.65;;;0.95;;
23046;SDS011;11691;51.462;6.902;2022-09-09T10:59:35;2.25;;;0.60;;
23046;SDS011;11691;51.462;6.902;2022-09-09T11:04:40;3.85;;;1.00;;
23046;SDS011;11691;51.462;6.902;2022-09-09T11:07:08;4.68;;;0.70;;
23046;SDS011;11691;51.462;6.902;2022-09-09T11:09:42;2.35;;;0.77;;
23046;SDS011;11691;51.462;6.902;2022-09-09T11:12:16;3.15;;;0.70;;
23046;SDS011;11691;51.462;6.902;2022-09-09T11:14:51;5.68;;;0.88;;
23046;SDS011;11691;51.462;6.902;2022-09-09T11:17:21;2.42;;;0.90;;
23046;SDS011;11691;51.462;6.902;2022-09-09T11:19:52;4.15;;;0.98;;
23046;SDS011;11691;51.462;6.902;2022-09-09T11:25:37;2.53;;;0.77;;
23046;SDS011;11691;51.462;6.902;2022-09-09T11:28:19;3.25;;;0.80;;
23046;SDS011;11691;51.462;6.902;2022-09-09T11:43:45;2.42;;;0.65;;
23046;SDS011;11691;51.462;6.902;2022-09-09T11:45:50;2.08;;;0.60;;
23046;SDS011;11691;51.462;6.902;2022-09-09T11:53:53;3.22;;;0.65;;
23046;SDS011;11691;51.462;6.902;2022-09-09T11:56:34;4.05;;;0.93;;
23046;SDS011;11691;51.462;6.902;2022-09-09T12:01:50;3.58;;;0.70;;
23046;SDS011;11691;51.462;6.902;2022-09-09T12:04:26;3.25;;;0.88;;
23046;SDS011;11691;51.462;6.902;2022-09-09T12:07:04;3.08;;;0.70;;
23046;SDS011;11691;51.462;6.902;2022-09-09T12:09:38;2.00;;;0.77;;
23046;SDS011;11691;51.462;6.902;2022-09-09T12:17:24;2.60;;;0.60;;
23046;SDS011;11691;51.462;6.902;2022-09-09T12:20:34;2.20;;;0.55;;
23046;SDS011;11691;51.462;6.902;2022-09-09T12:25:16;2.65;;;0.80;;
23046;SDS011;11691;51.462;6.902;2022-09-09T12:30:47;3.28;;;0.70;;
23046;SDS011;11691;51.462;6.902;2022-09-09T12:33:18;3.00;;;0.77;;
23046;SDS011;11691;51.462;6.902;2022-09-09T12:35:45;2.90;;;0.60;;
23046;SDS011;11691;51.462;6.902;2022-09-09T12:38:15;5.15;;;0.85;;
23046;SDS011;11691;51.462;6.902;2022-09-09T12:40:53;1.65;;;0.57;;
23046;SDS011;11691;51.462;6.902;2022-09-09T12:43:20;2.92;;;0.60;;
23046;SDS011;11691;51.462;6.902;2022-09-09T12:45:48;2.33;;;0.65;;
23046;SDS011;11691;51.462;6.902;2022-09-09T12:48:21;2.42;;;0.70;;
23046;SDS011;11691;51.462;6.902;2022-09-09T12:50:52;3.58;;;0.70;;
23046;SDS011;11691;51.462;6.902;2022-09-09T12:53:25;3.10;;;0.90;;
23046;SDS011;11691;51.462;6.902;2022-09-09T12:55:57;2.55;;;0.73;;
23046;SDS011;11691;51.462;6.902;2022-09-09T12:58:23;2.25;;;0.65;;
23046;SDS011;11691;51.462;6.902;2022-09-09T13:00:50;1.67;;;0.88;;
23046;SDS011;11691;51.462;6.902;2022-09-09T13:03:18;4.63;;;1.17;;
23046;SDS011;11691;51.462;6.902;2022-09-09T13:05:45;6.80;;;1.58;;
23046;SDS011;11691;51.462;6.902;2022-09-09T13:08:12;6.53;;;1.50;;
23046;SDS011;11691;51.462;6.902;2022-09-09T13:10:47;6.47;;;1.70;;
23046;SDS011;11691;51.462;6.902;2022-09-09T13:13:15;6.38;;;1.95;;
23046;SDS011;11691;51.462;6.902;2022-09-09T13:15:49;3.67;;;1.60;;
23046;SDS011;11691;51.462;6.902;2022-09-09T13:18:17;6.32;;;1.77;;
23046;SDS011;11691;51.462;6.902;2022-09-09T13:20:47;5.18;;;1.50;;
23046;SDS011;11691;51.462;6.902;2022-09-09T13:23:14;5.68;;;1.50;;
23046;SDS011;11691;51.462;6.902;2022-09-09T13:25:40;4.80;;;1.80;;
23046;SDS011;11691;51.462;6.902;2022-09-09T13:28:18;2.53;;;1.40;;
23046;SDS011;11691;51.462;6.902;2022-09-09T13:30:54;7.65;;;1.50;;
23046;SDS011;11691;51.462;6.902;2022-09-09T13:33:28;5.47;;;1.88;;
23046;SDS011;11691;51.462;6.902;2022-09-09T13:35:55;3.65;;;1.20;;
23046;SDS011;11691;51.462;6.902;2022-09-09T13:38:22;4.40;;;1.50;;
23046;SDS011;11691;51.462;6.902;2022-09-09T13:40:53;3.38;;;1.23;;
23046;SDS011;11691;51.462;6.902;2022-09-09T13:43:26;3.67;;;1.65;;
23046;SDS011;11691;51.462;6.902;2022-09-09T13:46:00;4.53;;;1.38;;
23046;SDS011;11691;51.462;6.902;2022-09-09T13:48:27;4.78;;;1.50;;
23046;SDS011;11691;51.462;6.902;2022-09-09T13:51:02;3.55;;;1.20;;
23046;SDS011;11691;51.462;6.902;2022-09-09T13:53:30;4.72;;;1.23;;
23046;SDS011;11691;51.462;6.902;2022-09-09T13:55:56;3.90;;;1.30;;
23046;SDS011;11691;51.462;6.902;2022-09-09T13:58:23;4.15;;;1.30;;
23046;SDS011;11691;51.462;6.902;2022-09-09T14:00:50;2.72;;;0.98;;
23046;SDS011;11691;51.462;6.902;2022-09-09T14:03:17;5.68;;;1.67;;
23046;SDS011;11691;51.462;6.902;2022-09-09T14:05:43;3.58;;;1.00;;
23046;SDS011;11691;51.462;6.902;2022-09-09T14:08:12;3.78;;;0.90;;
23046;SDS011;11691;51.462;6.902;2022-09-09T14:10:50;4.20;;;1.00;;
23046;SDS011;11691;51.462;6.902;2022-09-09T14:13:17;2.88;;;0.90;;
23046;SDS011;11691;51.462;6.902;2022-09-09T14:15:43;2.95;;;0.90;;
23046;SDS011;11691;51.462;6.902;2022-09-09T14:18:10;4.35;;;0.80;;
23046;SDS011;11691;51.462;6.902;2022-09-09T14:20:38;3.42;;;0.85;;
23046;SDS011;11691;51.462;6.902;2022-09-09T14:23:04;3.22;;;1.08;;
23046;SDS011;11691;51.462;6.902;2022-09-09T14:25:30;3.67;;;1.08;;
23046;SDS011;11691;51.462;6.902;2022-09-09T14:27:56;1.85;;;0.90;;
23046;SDS011;11691;51.462;6.902;2022-09-09T14:30:22;4.75;;;1.20;;
23046;SDS011;11691;51.462;6.902;2022-09-09T14:32:48;2.33;;;0.75;;
23046;SDS011;11691;51.462;6.902;2022-09-09T14:35:14;4.18;;;1.25;;
23046;SDS011;11691;51.462;6.902;2022-09-09T14:37:42;1.52;;;0.70;;
23046;SDS011;11691;51.462;6.902;2022-09-09T14:40:08;3.60;;;0.82;;
23046;SDS011;11691;51.462;6.902;2022-09-09T14:42:35;1.27;;;0.60;;
23046;SDS011;11691;51.462;6.902;2022-09-09T14:45:01;1.92;;;0.52;;
23046;SDS011;11691;51.462;6.902;2022-09-09T14:47:27;2.65;;;0.70;;
23046;SDS011;11691;51.462;6.902;2022-09-09T14:49:54;2.03;;;0.57;;
23046;SDS011;11691;51.462;6.902;2022-09-09T14:52:20;1.92;;;0.52;;
23046;SDS011;11691;51.462;6.902;2022-09-09T14:54:46;4.13;;;1.02;;
23046;SDS011;11691;51.462;6.902;2022-09-09T14:57:12;1.75;;;0.40;;
23046;SDS011;11691;51.462;6.902;2022-09-09T14:59:38;1.25;;;0.45;;
23046;SDS011;11691;51.462;6.902;2022-09-09T15:02:04;1.05;;;0.30;;
23046;SDS011;11691;51.462;6.902;2022-09-09T15:04:31;0.73;;;0.40;;
23046;SDS011;11691;51.462;6.902;2022-09-09T15:06:57;1.60;;;0.50;;
23046;SDS011;11691;51.462;6.902;2022-09-09T15:09:23;1.55;;;0.60;;
23046;SDS011;11691;51.462;6.902;2022-09-09T15:11:49;3.63;;;1.05;;
23046;SDS011;11691;51.462;6.902;2022-09-09T15:14:15;1.45;;;0.85;;
23046;SDS011;11691;51.462;6.902;2022-09-09T15:16:42;2.35;;;1.33;;
23046;SDS011;11691;51.462;6.902;2022-09-09T15:19:08;2.55;;;1.35;;
23046;SDS011;11691;51.462;6.902;2022-09-09T15:21:35;2.08;;;1.25;;
23046;SDS011;11691;51.462;6.902;2022-09-09T15:24:02;2.50;;;1.05;;
23046;SDS011;11691;51.462;6.902;2022-09-09T15:26:29;3.17;;;1.33;;
23046;SDS011;11691;51.462;6.902;2022-09-09T15:28:55;3.17;;;1.10;;
23046;SDS011;11691;51.462;6.902;2022-09-09T15:31:25;4.07;;;0.80;;
23046;SDS011;11691;51.462;6.902;2022-09-09T15:36:19;4.97;;;1.05;;
23046;SDS011;11691;51.462;6.902;2022-09-09T15:38:45;4.82;;;0.90;;
23046;SDS011;11691;51.462;6.902;2022-09-09T15:41:12;1.95;;;0.90;;
23046;SDS011;11691;51.462;6.902;2022-09-09T15:43:38;3.33;;;1.10;;
23046;SDS011;11691;51.462;6.902;2022-09-09T15:48:42;1.63;;;0.77;;
23046;SDS011;11691;51.462;6.902;2022-09-09T15:51:09;1.75;;;0.90;;
23046;SDS011;11691;51.462;6.902;2022-09-09T15:53:35;2.42;;;0.80;;
23046;SDS011;11691;51.462;6.902;2022-09-09T15:56:04;0.85;;;0.47;;
23046;SDS011;11691;51.462;6.902;2022-09-09T15:58:31;1.05;;;0.65;;
23046;SDS011;11691;51.462;6.902;2022-09-09T16:01:05;2.22;;;0.70;;
23046;SDS011;11691;51.462;6.902;2022-09-09T16:03:35;0.63;;;0.38;;
23046;SDS011;11691;51.462;6.902;2022-09-09T16:06:06;1.90;;;0.60;;
23046;SDS011;11691;51.462;6.902;2022-09-09T16:08:33;1.65;;;1.30;;
23046;SDS011;11691;51.462;6.902;2022-09-09T16:11:08;3.03;;;1.35;;
23046;SDS011;11691;51.462;6.902;2022-09-09T16:13:38;2.25;;;0.75;;
23046;SDS011;11691;51.462;6.902;2022-09-09T16:16:05;2.88;;;0.98;;
23046;SDS011;11691;51.462;6.902;2022-09-09T16:18:35;1.75;;;0.57;;
23046;SDS011;11691;51.462;6.902;2022-09-09T16:21:02;3.45;;;0.60;;
23046;SDS011;11691;51.462;6.902;2022-09-09T16:23:30;2.70;;;0.75;;
23046;SDS011;11691;51.462;6.902;2022-09-09T16:25:57;1.20;;;0.65;;
23046;SDS011;11691;51.462;6.902;2022-09-09T16:28:23;3.53;;;0.98;;
23046;SDS011;11691;51.462;6.902;2022-09-09T16:30:49;1.80;;;0.75;;
23046;SDS011;11691;51.462;6.902;2022-09-09T16:33:16;1.95;;;0.90;;
23046;SDS011;11691;51.462;6.902;2022-09-09T16:35:42;3.10;;;0.85;;
23046;SDS011;11691;51.462;6.902;2022-09-09T16:38:09;1.85;;;0.75;;
23046;SDS011;11691;51.462;6.902;2022-09-09T16:40:35;1.15;;;0.63;;
23046;SDS011;11691;51.462;6.902;2022-09-09T16:43:02;2.75;;;0.80;;
23046;SDS011;11691;51.462;6.902;2022-09-09T16:45:28;3.85;;;0.80;;
23046;SDS011;11691;51.462;6.902;2022-09-09T16:47:55;3.50;;;1.08;;
23046;SDS011;11691;51.462;6.902;2022-09-09T16:50:21;3.60;;;1.00;;
23046;SDS011;11691;51.462;6.902;2022-09-09T16:52:47;1.67;;;1.00;;
23046;SDS011;11691;51.462;6.902;2022-09-09T16:55:13;2.65;;;1.00;;
23046;SDS011;11691;51.462;6.902;2022-09-09T16:57:39;3.13;;;1.10;;
23046;SDS011;11691;51.462;6.902;2022-09-09T17:00:06;3.40;;;1.15;;
23046;SDS011;11691;51.462;6.902;2022-09-09T17:02:33;3.63;;;1.10;;
23046;SDS011;11691;51.462;6.902;2022-09-09T17:04:59;2.38;;;0.82;;
23046;SDS011;11691;51.462;6.902;2022-09-09T17:07:25;2.88;;;1.60;;